ImprimablePdf
Antwerp, 25/04/2010, BEL - DVV Antwerp Marathon & 10 Miles
Liste des rapports > Marathon - 30km
Recherche: Page: [1] 2 3 4 5 6 7 8
1545 Entrées
 
Les réclamations ne sont plus acceptées, les résultats sont considérés comme définitifs.
Catégorie
PosNrNomAgeIOCEquipeTempsTkmMoy.RangNomLocalité
1.4KIMAITO NAHASHONKEN1:33:013:07 19.35-X
2.8KEBENEI ERNESTKEN1:33:253:07 19.27-X
3.3KIPKOSGEI LUKEKEN1:33:333:08 19.24-X
4.2LOTIRA DISMASKEN1:34:123:09 19.11-X
5.1VAN GEYTE GINO43BEL1:36:293:13 18.661M40ZWIJNAARDE
6.9TONTCHINSKI VLADEMIR43BEL1:40:413:22 17.882M40KURINGEN
7.7NEVEN KOEN33BEL1:40:413:22 17.881SEHRIEMST
8.6BEKKALI OMAR32BEL1:43:113:27 17.442SEHLIEGE
9.342HARDEE NEIL45WAL1:48:493:38 16.541M45MALPAS, NEWPORT
10.289DEWAELE JOOST36BEL1:48:513:38 16.541M35VICHTE
11.612RASSCHAERT EDDY43BEL1:49:433:40 16.413M40TOURNAI
12.1000PREIBISCH RALF48NLD1:50:063:41 16.352M45HALSTEREN
13.770BEIRNAERT THOMAS33BEL1:50:283:41 16.303SEHBEERNEM
14.669VAN HOECK YVES39BEL1:50:293:41 16.292M35MOERBEKE-WAAS
15.1330STEEMAN KOEN41BEL1:50:333:42 16.284M40BORSBEEK (ANTW.)
16.379HENDRICKX JAN51BEL1:53:573:48 15.801M50HOOGSTRATEN
17.370LELIAERT ANDY35BEL1:53:573:48 15.803M35NEEROETEREN
18.369LAUWEN GINO32BEL1:54:383:50 15.704SEHWESTERLO
19.876PARDAENS KAREL39BEL1:55:273:51 15.594M35HEVERLEE
20.378VANDERLINDEN MARC52BEL1:55:363:52 15.572M50BRUXELLES
21.954LUCAS MICHAEL43BEL1:55:373:52 15.575M40BRUXELLES
22.990PEETERS RUDY46BEL1:56:023:53 15.513M45TESSENDERLO
23.308MERTENS PAUL48BEL1:56:033:53 15.514M45NIJLEN
24.635BARTHOLOMEEUSEN ERIC46BEL1:56:223:53 15.475M45BRECHT
25.12RUL KRISTOF38BEL1:57:163:55 15.355M35DEINZE
26.422LIBEER BASTIAAN25BEL1:58:573:58 15.135SEHMECHELEN
27.772VERMOENS PHILIP39BEL1:59:183:59 15.096M35ESSEN
28.11TAELMAN LUCIEN53BEL1:59:243:59 15.083M50WAREGEM
29.1072VAN STEEN SVEN44BEL1:59:454:00 15.036M40ZEMST
30.48GRILLO PINO44BEL1:59:494:00 15.027M40SCHOTEN
31.815DESCAMPS OLIVIER46BEL2:00:064:01 14.996M45GENT
32.287VANDEWALLE PEDRO28BEL2:00:084:01 14.996SEHRUDDERVOORDE
33.317VAN CAUTEREN TOON49BEL2:00:094:01 14.987M45ZELE
34.310LEUS FRANKIE48BEL2:00:094:01 14.988M45HERENTHOUT
35.890SWALENS DIRK47BEL2:00:104:01 14.989M45HASSELT
36.337RENS STEFAN42BEL2:00:114:01 14.988M40MORKHOVEN
37.1235VAN ZAELEN MARCO37BEL2:01:014:03 14.887M35ANTWERPEN 1
38.1313VANMARCKE KURT45BEL2:01:284:03 14.8210M45WAREGEM
39.2336VERHEYEN WOUTER25BEL2:01:354:04 14.817SEHRILLAAR
40.594LEROY CHRISTOPHE39BEL2:01:354:04 14.808M35HALLE
41.1400DIRCKX LUC41BEL2:01:364:04 14.809M40LIER
42.449SMETS LEO46BEL2:02:024:05 14.7511M45OLEN
43.501CHAUHAN HARBANS50BEL2:02:124:05 14.734M50HEVERLEE
44.1270MEEUSEN BART40BEL2:02:144:05 14.7310M40HOOGSTRATEN
45.311VERMEIREN DIRK41BEL2:02:144:05 14.7311M40WESTMALLE
46.743WARNON BERNARD43BEL2:02:154:05 14.7312M40SINT-STEVENS-WOLUWE
47.328KANU ALEX41BEL2:02:554:06 14.6413M40ANTWERPEN 1
48.371VETS DIRK41BEL2:03:054:07 14.6214M40NIJLEN
49.1484PERDIEUS VIKTORBEL2:03:434:08 14.55-VORSELAAR
50.617REYNDERS GEERT30BEL2:03:584:08 14.528SEHBEERSE
51.845NELISSEN JOHNY38BEL2:04:044:09 14.519M35BREE
52.677DRIESEN WIM43BEL2:04:084:09 14.5015M40BEERSE
53.486PHILIPPO JAN45BEL2:04:094:09 14.5012M45KALMTHOUT
54.622DE VOGELAERE JORIS48BEL2:04:114:09 14.5013M45WAREGEM
55.538D'HONDT HERMAN49BEL2:04:124:09 14.4914M45BAZEL
56.38VAN DE CAUTER Erwin48BEL2:04:144:09 14.4915M45
57.1108VAN DROOGENBROECK DIRK40BEL2:04:154:09 14.4916M40NINOVE
58.319VAN NIEUWENHOVE JEROEN42BEL2:04:164:09 14.4917M40KESSEL-LO
59.329VAN WALLENDAEL WILLY43BEL2:04:164:09 14.4918M40KAPELLEN (ANTW.)
60.608GEEROMS KRIS49BEL2:04:434:10 14.4316M45LONDERZEEL
61.659NICQUE LUC46BEL2:04:454:10 14.4317M45SINT-NIKLAAS
62.554DE DECKER PETER46BEL2:04:504:10 14.4218M45WAASMUNSTER
63.593SCHILDERMANS BART43BEL2:04:514:10 14.4219M40OPOETEREN
64.365DE BROUWER GEERT48BEL2:04:524:10 14.4219M45EREMBODEGEM
65.537KEUPPENS BENNY33BEL2:04:534:10 14.419SEHBEERSE
66.1028ROGIER JOSSE51BEL2:04:564:10 14.415M50ROOSDAAL
67.558VAN SPEYBROECK MAURICE53BEL2:04:594:10 14.406M50ERTVELDE
68.1516VAN LOOVEREN BART29BEL2:05:054:11 14.3910SEHWUUSTWEZEL
69.867ROELANDT PATRICK48BEL2:05:064:11 14.3920M45SINT-NIKLAAS
70.1806DEMOL Guy57BEL2:05:104:11 14.381M55
71.2252LESDANON FREDERIC45BEL2:05:174:11 14.3721M45SINT NIKLAAS
72.1844NR 1844 XXX2:05:204:11 14.36-
73.1415JOOS DAVID41BEL2:05:354:12 14.3320M40LEBBEKE
74.420VER ELST JAN52BEL2:05:404:12 14.327M50HERSELT
75.1505NUYTS PETER47BEL2:05:464:12 14.3122M45BALEN
76.2073NR 2073 XXX2:05:574:12 14.29-
77.35CLOOSTERMANS PIETER-JAN24BEL2:06:004:12 14.2911SEHHEUSDEN-ZOLDER
78.935JACOBS EDDY40BEL2:06:004:12 14.2921M40BUGGENHOUT
79.2265VANHEE MARNIX52BEL2:06:114:13 14.278M50TEMSE
80.1366TERMONIA PIET39BEL2:06:144:13 14.2610M35GERAARDSBERGEN
81.1803FESTJENS Peter38BEL2:06:164:13 14.2611M35
82.1033BACKAERT DIMITRI42BEL2:06:174:13 14.2522M40MOORSEL
83.1390VAN RENTERGHEM KWINTEN24BEL2:06:204:13 14.2512SEHMARIAKERKE
84.785VAN CASTER ERIC38GBR2:06:204:13 14.2512M35CHELMSFORD
85.502DEBLAUWE SERGE45BEL2:06:214:13 14.2523M45ICHTEGEM
85.1277VAN RYSSELBERGHE JOHAN38BEL2:06:214:13 14.2513M35LAARNE
87.872KINNE IVAN47BEL2:06:214:13 14.2524M45ZEMST
88.1148VAN DER NEUT CHRIS49NLD2:06:224:13 14.2525M45AMSTERDAM
89.816BOGAERTS STEVEN34BEL2:06:224:13 14.2413SEHBRECHT
90.1097DAEMS ERIK40BEL2:06:224:13 14.2423M40TIELEN
91.405THEUNISSEN IWAN38NLD2:06:224:13 14.2414M35LANDGRAAF
92.579HOSTENS IVAN47BEL2:06:234:13 14.2426M45HANDZAME
93.982LOMME RONNY40BEL2:06:234:13 14.2424M40ZWIJNAARDE
94.521GEUDENS NICK31BEL2:06:244:13 14.2414SEHKASTERLEE
95.578GEERTS LUC54BEL2:06:244:13 14.249M50BEVEREN-WAAS
96.1042DAEMS JAN35BEL2:06:284:13 14.2315M35LEUVEN
97.2256VAN EETVELT IVAN40BEL2:06:284:13 14.2325M40VRASENE
98.1242VAN DE WYNGAERT JOS27BEL2:06:304:13 14.2315SEHMERKSEM
99.559DE PAUW KURT39BEL2:06:314:14 14.2316M35WILLEBROEK
100.1293VAN BRUWAENE RUDY58BEL2:06:324:14 14.232M55TIELT
101.1295VAN DE VELDE GUIDO43BEL2:06:344:14 14.2226M40KRUIBEKE
102.440WATTHY JOHAN43BEL2:06:374:14 14.2227M40GISTEL
103.504SNOEKS JOS49BEL2:06:394:14 14.2127M45EKSEL
104.858VAN HIEL NICO46BEL2:06:414:14 14.2128M45KEERBERGEN
105.446DEPESTEL POL50BEL2:06:414:14 14.2110M50HERENTHOUT
106.509WIJNEN YVES35BEL2:06:434:14 14.2117M35MAASMECHELEN
107.596VAN POEKE YVES42BEL2:06:474:14 14.2028M40LEDE
108.1038ADEM WOUTER30BEL2:06:554:14 14.1816SEHBRUGGE
109.713MICHIELSE KRISTOF29BEL2:07:004:14 14.1717SEHBRASSCHAAT
110.1391ROSE FREDERIC43FRA2:07:004:14 14.1729M40OUTREAU
111.637NR 637 XXX2:07:084:15 14.16-
112.1398LINDEKENS ANDRE39BEL2:07:264:15 14.1318M35FOSSES-LA-VILLE
113.802JANSSEN GUNTER42BEL2:07:344:16 14.1130M40RETIE
114.47DEVRIENDT GUY46BEL2:07:464:16 14.0929M45SCHERPENHEUVEL
115.2425STEENSSENS HENDRIK47BEL2:07:484:16 14.0830M45TIELRODE
116.603VAN CAMP NICO36BEL2:07:494:16 14.0819M35BOECHOUT
117.322VANDEBEEK PATRICK36BEL2:08:004:16 14.0620M35AARSCHOT
118.551WILLEM CORNELIS54BEL2:08:214:17 14.0211M50TERNAT
119.2050VANDERINDEN Robbi45BEL2:08:304:17 14.0131M45
120.1156HERREBOUT STEFAAN39BEL2:08:334:18 14.0021M35SINT-MICHIELS
121.879VERMEIR DIRK45BEL2:08:374:18 14.0032M45LONDERZEEL
122.199WILS GEERT28BEL2:08:374:18 14.0018SEHAARTSELAAR
123.1419AERNOUTS PAUL37BEL2:08:384:18 13.9922M35WUUSTWEZEL
124.1554DIERYK Pascal42BEL2:08:394:18 13.9931M40
125.2020PRESUTTI Francesco48BEL2:08:434:18 13.9933M45
126.565BOUSSAERT DENIS52FRA2:08:594:18 13.9612M50ONNAING
127.1282DERKS HENKNLD2:09:044:19 13.95-HAARLEM
128.570FDUPONT ANNE-MARIE37BEL2:09:284:19 13.901F35BLANKENBERGE
129.1829PETTEAU Benjamin26BEL2:09:374:20 13.8919SEH
130.1261VAN DEN DRIES PASCAL44BEL2:09:434:20 13.8832M40MECHELEN
131.1555CORNELIS Filip42BEL2:09:514:20 13.8633M40
132.782FVAN LEEUWEN LIESBETH46NLD2:09:534:20 13.861F45VOORSCHOTEN
133.434BEDOUET YANN41BEL2:09:574:20 13.8534M40FRANCE
134.1259KUYSTERMANS TOM36BEL2:10:374:22 13.7823M35BLANKENBERGE
135.228VANHEE KOBE33BEL2:10:394:22 13.7820SEHDEINZE
136.832VERVUEREN STEVE36BEL2:10:484:22 13.7624M35VILVOORDE
137.484DOMS DIETER28BEL2:11:024:23 13.7421SEHWAARLOOS
138.2408MISSANT BRUNOBEL2:11:084:23 13.73-VICHTE
139.1363DAUSIMONT MARC40BEL2:11:114:23 13.7235M40BRUXELLES 4
140.1184KERENS PHILIPPE44BEL2:11:124:23 13.7236M40JEMEPPE-SUR-MEUSE
141.685PEIJNENBORG ERIC33NLD2:11:134:23 13.7222SEHOISTERWIJK
142.1025CATTEAU STAN38BEL2:11:244:23 13.7025M35KESSEL-LO
143.1498BORZEE CHRISTOPHE32BEL2:11:254:23 13.7023SEHECAUSSINNES
144.2083MATTHYS Wim39BEL2:11:284:23 13.6926M35
145.628FGUILLEMYN MARIJKE46BEL2:11:284:23 13.692F45POELKAPELLE
146.1182MAES PETER32BEL2:11:324:24 13.6924SEHLANGDORP
147.514VANDEVENNE BART34BEL2:11:324:24 13.6925SEHWINKSELE
148.1388LEUSE RONNY45BEL2:11:334:24 13.6834M45LAAKDAL
149.1063BOEYE LUC48BEL2:11:344:24 13.6835M45ANTWERPEN WILRIJK
150.1421JACOBS ROEL36BEL2:11:394:24 13.6727M35ARENDONK
151.1558STEENS Luc41BEL2:11:414:24 13.6737M40
152.755DE SCHRIJVER HENDRIK55BEL2:12:104:25 13.623M55AALST
153.609BLASSON LAURENT31BEL2:12:154:25 13.6126SEHETTERBEEK
154.798LAMBRECHTS KRIS42BEL2:12:194:25 13.6038M40WIJGMAAL (BT.)
155.239DE MEESTER JEROEN30BEL2:12:234:25 13.6027SEHRANST
156.863CARDON ERIC46BEL2:12:244:25 13.6036M45ZELE
157.1511PACKOLET WALTER54BEL2:12:484:26 13.5613M50ANTWERPEN 2
158.988BAETENS MARCO41BEL2:12:534:26 13.5539M40WILRIJK
159.639CRAEYNEST JEAN-MARC41BEL2:13:114:27 13.5240M40BRUXELLES 8
160.2090STACHONIAK Pawel34BEL2:13:154:27 13.5128SEH
161.2384SEYNAEVE JAN44BEL2:13:234:27 13.5041M40GENT
162.771DIERICK DIRK50BEL2:13:254:27 13.4914M50POELKAPELLE
163.1268DENDAL DIDIER47BEL2:13:344:28 13.4837M45LIEGE 1
164.870WILLEMS PETER46BEL2:13:374:28 13.4738M45ZONHOVEN
165.1251SONDERGAARD PETER38BEL2:13:424:28 13.4628M35SCHAARBEEK
166.2311DE WOLF DAVID36BEL2:13:544:28 13.4429M35NIEUWKERKEN-WAAS
167.2102DE COCK OlafBEL2:14:014:29 13.43-
168.1304VAN DEN BOGAERT TOM34BEL2:14:024:29 13.4329SEHWICHELEN
169.1544JOSEPH BERNARD48BEL2:14:024:29 13.4339M45RHODE-SAINT-GENESE
170.956GOEMAERE GUNTHER33BEL2:14:024:29 13.4330SEHARLON
171.2260DE BRUYNE JAN45BEL2:14:114:29 13.4240M45BEVEREN
172.2279JANSSENS GUY49BEL2:14:174:29 13.4041M45ST.NIKLAAS
173.556LECOK RUBEN30BEL2:14:184:29 13.4031SEHLEUVEN
174.441MEERT MARCEL52BEL2:14:234:29 13.3915M50SINT-KATHERINA-LOMBEEK
175.1847ORYE Jan47BEL2:14:344:30 13.3842M45
176.1445VANTYGHEM VINCENT38BEL2:14:344:30 13.3830M35EERNEGEM
177.2526PURRO RomanoBEL2:14:414:30 13.36-
178.273SIJBENS LUDO55BEL2:14:434:30 13.364M55ALKEN
179.675BRUYNEEL ALAIN47BEL2:14:474:30 13.3643M45SINT-AMANDSBERG
180.1153BEEKEN WALTHER60BEL2:14:514:30 13.351M60LIEDEKERKE
181.753SPEELMANS STEFAN48BEL2:15:034:31 13.3344M45DIEST
182.470VAN HEIRZEELE BRAM28BEL2:15:054:31 13.3332SEHGENT
183.1175RIVET JEAN FRANCOIS36FRA2:15:084:31 13.3231M35WIMEREUX
184.834DAUTREVAUX DAVID40FRA2:15:094:31 13.3242M40SAMER
185.793SENECHAL SEBASTIEN38FRA2:15:134:31 13.3132M35OUTREAU
186.108FWENZL CHRISTINE29AUT2:15:134:31 13.311SEFLEOBEN
187.1274COECKELBERGHS KURT33BEL2:15:194:31 13.3033SEHHOBOKEN (ANTWERPEN)
188.1309VERCAIGNE BOB45FRA2:15:214:31 13.3045M45TOURCOING
189.1052ROELANDTS OLIVIER49BEL2:15:294:31 13.2946M45BRUXELLES
190.614BEYNS ROBERT50BEL2:15:344:32 13.2816M50HAM
191.2094FLOREZ DROOP Manuel51BEL2:15:394:32 13.2717M50
192.2385MICHIELS STEVEN28BEL2:15:404:32 13.2734SEHGENT
193.507WITTE RINUS48NLD2:15:424:32 13.2747M45MIDDELBURG
194.533VAN LOON ANDY36BEL2:15:424:32 13.2633M35BOOM
195.1290VAN GIEL GEERTBEL2:15:424:32 13.26-RANST
196.907KELCHTERMANS JIMMY37BEL2:15:524:32 13.2534M35HOUTHALEN
197.818MEERS VINCENT37BEL2:15:564:32 13.2435M35GENTBRUGGE
198.1248SURKIJN ERIK45BEL2:15:584:32 13.2448M45LOKSBERGEN
199.2317VAN HAUWERMEIREN MARC49BEL2:16:034:33 13.2349M45BERLARE
200.1026DE BACKER WILLY52BEL2:16:044:33 13.2318M50BERLARE
DNF: abandon; DSQ: disqualifié; Vitesse en km/h
ChronoRace - Electronic Timing - www.chronorace.be